Time;durP1;ratioP1;P1;durP2;ratioP2;P2;SDS_P1;SDS_P2;PMS_P1;PMS_P2;Temp;Humidity;BMP_temperature;BMP_pressure;BME280_temperature;BME280_humidity;BME280_pressure;Samples;Min_cycle;Max_cycle;Signal;HPM_P1;HPM_P2
2024/04/07 00:02:24;;;;;;;4.10;1.77;;;;;;;20.07;52.53;100837.16;5019614;28;20092;-72
2024/04/07 00:04:50;;;;;;;3.42;1.40;;;;;;;20.09;52.43;100837.88;5019499;28;20464;-71
2024/04/07 00:07:15;;;;;;;3.40;1.40;;;;;;;19.98;52.27;100818.63;5020175;28;20033;-71
2024/04/07 00:09:43;;;;;;;4.75;1.70;;;;;;;19.93;52.05;100809.31;5020087;28;20034;-69
2024/04/07 00:12:09;;;;;;;4.18;1.55;;;;;;;20.06;52.48;100826.72;5019282;28;20068;-70
2024/04/07 00:14:36;;;;;;;3.35;1.58;;;;;;;19.98;52.21;100821.28;5020318;28;20033;-69
2024/04/07 00:17:01;;;;;;;4.32;1.60;;;;;;;20.01;52.24;100807.78;5019424;28;20028;-69
2024/04/07 00:19:26;;;;;;;3.88;1.63;;;;;;;19.91;52.32;100800.66;5019513;28;20109;-67
2024/04/07 00:21:52;;;;;;;4.17;1.70;;;;;;;19.97;52.14;100817.00;5021587;28;20375;-69
2024/04/07 00:24:17;;;;;;;4.32;1.90;;;;;;;19.65;52.16;100773.91;5023856;28;20267;-68
2024/04/07 00:26:42;;;;;;;3.97;1.67;;;;;;;20.03;52.02;100842.91;5023465;28;20379;-69
2024/04/07 00:29:07;;;;;;;4.00;1.88;;;;;;;19.94;52.32;100824.19;5023659;28;20541;-69
2024/04/07 00:31:33;;;;;;;3.95;1.80;;;;;;;19.99;52.39;100842.31;5023224;28;20029;-70
2024/04/07 00:33:58;;;;;;;4.78;1.88;;;;;;;19.97;52.34;100843.44;5023095;28;20147;-68
2024/04/07 00:36:23;;;;;;;4.82;1.60;;;;;;;20.03;51.99;100864.88;5023359;28;20076;-73
2024/04/07 00:38:49;;;;;;;3.63;1.58;;;;;;;20.05;52.16;100877.97;5023298;28;20026;-69
2024/04/07 00:41:14;;;;;;;3.92;1.45;;;;;;;20.05;52.08;100877.97;5020572;28;20474;-72
2024/04/07 00:43:40;;;;;;;4.68;1.88;;;;;;;20.03;51.97;100904.56;5023874;28;20040;-69
2024/04/07 00:46:06;;;;;;;4.78;1.67;;;;;;;19.82;51.88;100861.47;5022986;28;20650;-68
2024/04/07 00:48:32;;;;;;;4.65;1.33;;;;;;;19.91;52.17;100864.16;5022797;28;20632;-72
2024/04/07 00:50:59;;;;;;;4.93;1.60;;;;;;;20.02;51.88;100873.78;5023087;28;20033;-68
2024/04/07 00:53:25;;;;;;;3.47;1.55;;;;;;;19.91;52.00;100865.97;5023311;28;20036;-69
2024/04/07 00:55:50;;;;;;;7.05;2.00;;;;;;;19.88;51.92;100845.06;5022427;28;20037;-70
2024/04/07 00:58:17;;;;;;;3.47;1.65;;;;;;;20.02;51.78;100916.09;5033551;28;20044;-71
2024/04/07 01:00:44;;;;;;;4.65;1.60;;;;;;;19.99;52.11;100903.16;5025297;28;20026;-71
2024/04/07 01:03:10;;;;;;;3.92;1.65;;;;;;;19.66;52.08;100856.69;5022728;28;20040;-71
2024/04/07 01:05:43;;;;;;;3.83;2.17;;;;;;;20.02;51.77;100929.34;5022476;28;20037;-68
2024/04/07 01:08:09;;;;;;;4.30;1.50;;;;;;;19.91;51.79;100930.28;5022395;28;20509;-67
2024/04/07 01:10:35;;;;;;;4.07;1.58;;;;;;;19.92;51.86;100923.19;5022855;28;20037;-70
2024/04/07 01:13:02;;;;;;;3.80;1.67;;;;;;;20.01;51.64;100940.06;5022954;28;20510;-71
2024/04/07 01:15:28;;;;;;;4.45;1.65;;;;;;;19.90;52.03;100940.97;5022148;28;20044;-70
2024/04/07 01:17:53;;;;;;;3.67;1.55;;;;;;;19.87;51.67;100955.34;5022395;28;20034;-71
2024/04/07 01:20:18;;;;;;;5.15;1.50;;;;;;;19.97;51.67;100965.94;5022631;28;20040;-69
2024/04/07 01:22:44;;;;;;;6.22;1.63;;;;;;;19.98;51.53;100958.84;5021567;28;20029;-71
2024/04/07 01:25:09;;;;;;;3.95;1.40;;;;;;;20.00;51.62;100956.91;5023781;28;20141;-69
2024/04/07 01:27:34;;;;;;;4.10;1.40;;;;;;;19.92;51.65;100976.91;5022193;28;20034;-72
2024/04/07 01:30:00;;;;;;;3.45;1.40;;;;;;;19.89;51.66;100961.31;5022059;28;20037;-68
2024/04/07 01:32:25;;;;;;;4.15;1.25;;;;;;;19.93;51.51;100956.59;5022108;28;20450;-70
2024/04/07 01:34:50;;;;;;;3.90;1.30;;;;;;;19.93;51.44;100961.88;5021683;28;20116;-69
2024/04/07 01:37:16;;;;;;;5.50;1.70;;;;;;;19.90;51.57;100951.56;5021825;28;20144;-69
2024/04/07 01:39:41;;;;;;;4.78;1.60;;;;;;;19.91;51.69;100979.69;5022403;28;20030;-72
2024/04/07 01:42:07;;;;;;;3.97;1.70;;;;;;;19.96;51.74;100985.41;5021873;28;20124;-68
2024/04/07 01:44:32;;;;;;;3.50;1.30;;;;;;;19.93;51.79;100989.19;5022390;28;20041;-70
2024/04/07 01:46:57;;;;;;;4.25;1.58;;;;;;;19.83;51.56;100988.28;5021951;28;20072;-69
2024/04/07 01:49:23;;;;;;;4.70;1.42;;;;;;;19.85;51.65;100999.59;5021858;28;20491;-71
2024/04/07 01:51:48;;;;;;;2.78;1.20;;;;;;;19.82;51.57;100981.34;5021376;28;20538;-69
2024/04/07 01:54:13;;;;;;;3.95;1.45;;;;;;;19.85;51.56;101014.59;5022415;28;20098;-71
2024/04/07 01:56:38;;;;;;;4.25;1.60;;;;;;;19.88;51.53;101030.22;5021961;28;20033;-68
2024/04/07 01:59:04;;;;;;;3.77;1.40;;;;;;;19.89;51.44;101053.88;5021378;28;20025;-70
2024/04/07 02:01:29;;;;;;;3.90;1.33;;;;;;;19.90;51.65;101065.28;5021681;28;20258;-68
2024/04/07 02:03:55;;;;;;;4.05;1.70;;;;;;;19.90;51.76;101070.59;5020839;28;20640;-70
2024/04/07 02:06:20;;;;;;;4.57;1.40;;;;;;;19.94;51.28;101080.78;5003340;28;20029;-73
2024/04/07 02:08:46;;;;;;;3.95;1.70;;;;;;;19.90;51.34;101089.97;5021662;28;20033;-70
2024/04/07 02:11:11;;;;;;;4.78;1.50;;;;;;;19.81;51.62;101079.31;5021172;28;20033;-68
2024/04/07 02:13:37;;;;;;;3.92;1.30;;;;;;;19.79;51.13;101082.09;5021848;28;20033;-68
2024/04/07 02:16:03;;;;;;;3.35;1.38;;;;;;;19.92;51.46;101111.00;5021206;28;20088;-69
2024/04/07 02:18:28;;;;;;;4.90;1.65;;;;;;;19.88;51.19;101107.75;5021070;28;20041;-71
2024/04/07 02:20:53;;;;;;;4.10;1.50;;;;;;;19.93;51.33;101110.84;5021113;28;20036;-68
2024/04/07 02:23:19;;;;;;;3.67;1.42;;;;;;;19.78;51.41;101090.16;5021166;28;20779;-69
2024/04/07 02:25:46;;;;;;;4.25;1.40;;;;;;;19.88;51.33;101126.25;5020908;28;20033;-68
2024/04/07 02:28:12;;;;;;;4.60;1.35;;;;;;;19.79;51.70;101124.41;5021405;28;20156;-68
2024/04/07 02:30:37;;;;;;;4.63;1.40;;;;;;;19.86;51.63;101140.59;5020976;28;20033;-68
2024/04/07 02:33:04;;;;;;;4.63;1.30;;;;;;;19.89;51.43;101148.28;5020431;28;20098;-70
2024/04/07 02:35:31;;;;;;;4.53;1.33;;;;;;;19.74;51.63;101119.47;5021424;28;20124;-71
2024/04/07 02:37:57;;;;;;;3.47;1.30;;;;;;;19.92;51.70;101150.66;5020929;28;20157;-69
2024/04/07 02:40:22;;;;;;;3.80;1.33;;;;;;;19.83;51.56;101117.88;5021275;28;20021;-71
2024/04/07 02:42:48;;;;;;;3.92;1.30;;;;;;;19.79;51.57;101113.84;5020999;28;20550;-68
2024/04/07 02:48:04;;;;;;;3.35;1.10;;;;;;;19.75;51.58;101092.03;5020195;28;20122;-72
2024/04/07 02:50:30;;;;;;;4.28;1.50;;;;;;;19.89;51.22;101125.31;5021012;28;20044;-72
2024/04/07 02:52:55;;;;;;;5.03;1.55;;;;;;;19.77;51.53;101120.22;5020517;28;20033;-67
2024/04/07 02:55:20;;;;;;;4.03;1.33;;;;;;;19.85;51.12;101131.84;5020745;28;20033;-68
2024/04/07 02:57:46;;;;;;;3.15;1.10;;;;;;;19.82;51.22;101141.81;5016638;28;20079;-68
2024/04/07 03:00:13;;;;;;;4.00;1.20;;;;;;;19.76;51.29;101132.59;5020144;28;20483;-70
2024/04/07 03:02:43;;;;;;;3.17;1.17;;;;;;;19.80;51.11;101147.22;5020493;28;20483;-71
2024/04/07 03:05:08;;;;;;;4.32;1.15;;;;;;;19.82;50.83;101153.25;5020859;28;20031;-69
2024/04/07 03:07:35;;;;;;;3.30;1.13;;;;;;;19.83;51.06;101172.59;5020339;28;20033;-69
2024/04/07 03:10:00;;;;;;;2.55;0.90;;;;;;;19.79;51.06;101147.34;5020502;28;20087;-71
2024/04/07 03:12:27;;;;;;;2.75;1.10;;;;;;;19.73;50.99;101128.38;5020385;28;20041;-68
2024/04/07 03:14:54;;;;;;;3.67;1.20;;;;;;;19.84;50.60;101140.72;5019827;28;20044;-69
2024/04/07 03:17:19;;;;;;;2.95;0.90;;;;;;;19.83;50.94;101135.56;5021047;28;20120;-67
2024/04/07 03:19:44;;;;;;;2.92;0.95;;;;;;;19.86;50.65;101141.44;5020053;28;20136;-69
2024/04/07 03:22:10;;;;;;;2.25;1.00;;;;;;;19.61;50.73;101091.53;5002284;28;20037;-70
2024/04/07 03:24:35;;;;;;;4.55;1.30;;;;;;;19.75;50.63;101136.16;5002930;28;20041;-69
2024/04/07 03:27:00;;;;;;;4.22;1.05;;;;;;;19.74;50.49;101119.47;5018542;28;20037;-70
2024/04/07 03:29:26;;;;;;;3.25;0.90;;;;;;;19.83;50.60;101146.13;5002734;28;20041;-69
2024/04/07 03:31:51;;;;;;;3.30;1.00;;;;;;;19.70;50.40;101127.78;5020675;28;20033;-71
2024/04/07 03:34:16;;;;;;;2.35;0.85;;;;;;;19.83;50.33;101151.44;5020205;28;20052;-68
2024/04/07 03:36:42;;;;;;;2.55;0.82;;;;;;;19.79;50.24;101131.47;5019952;28;20032;-70
2024/04/07 03:39:07;;;;;;;2.40;0.90;;;;;;;19.84;50.29;101129.31;5009158;28;20037;-68
2024/04/07 03:41:34;;;;;;;3.03;1.10;;;;;;;19.73;50.17;101103.75;5020469;28;20032;-69
2024/04/07 03:43:59;;;;;;;3.75;0.93;;;;;;;19.70;50.36;101090.78;5019094;28;20033;-68
2024/04/07 03:46:24;;;;;;;2.77;0.90;;;;;;;19.66;50.14;101090.19;5020124;28;20479;-68
2024/04/07 03:48:52;;;;;;;2.50;1.00;;;;;;;19.73;50.05;101107.22;5020251;28;20325;-68
2024/04/07 03:51:17;;;;;;;2.85;0.75;;;;;;;19.69;50.39;101111.09;5019887;28;20037;-71
2024/04/07 03:53:43;;;;;;;1.67;0.80;;;;;;;19.79;50.23;101119.13;5020117;28;20036;-72
2024/04/07 03:56:08;;;;;;;2.30;0.80;;;;;;;19.76;50.00;101100.88;5002961;28;21189;-69
2024/04/07 03:58:33;;;;;;;1.90;0.87;;;;;;;19.80;50.35;101102.25;5023527;28;20171;-70
2024/04/07 04:01:02;;;;;;;1.97;0.70;;;;;;;19.66;49.89;101071.69;5023721;28;20656;-69
2024/04/07 04:03:28;;;;;;;2.30;0.77;;;;;;;19.80;50.13;101094.34;5023330;28;20291;-70
2024/04/07 04:05:55;;;;;;;1.90;0.70;;;;;;;19.80;49.94;101089.03;5024061;28;20039;-68
2024/04/07 04:08:20;;;;;;;1.85;1.00;;;;;;;19.63;50.04;101063.16;5006320;28;20052;-69
2024/04/07 04:10:46;;;;;;;1.55;0.70;;;;;;;19.78;50.14;101092.81;5023144;28;20483;-69
2024/04/07 04:13:11;;;;;;;2.55;0.80;;;;;;;19.65;49.98;101071.81;5023575;28;20068;-69
2024/04/07 04:15:36;;;;;;;2.70;0.95;;;;;;;19.78;50.01;101119.25;5023715;28;20065;-68
2024/04/07 04:18:04;;;;;;;1.85;0.70;;;;;;;19.67;50.16;101104.25;5023412;28;20463;-68
2024/04/07 04:20:29;;;;;;;1.42;0.60;;;;;;;19.67;50.16;101110.38;5023847;28;20039;-68
2024/04/07 04:22:55;;;;;;;2.38;0.80;;;;;;;19.69;50.21;101107.59;5023337;28;20029;-68
2024/04/07 04:25:21;;;;;;;3.08;0.88;;;;;;;19.75;49.88;101130.88;5023641;28;20032;-72
2024/04/07 04:27:46;;;;;;;1.60;0.60;;;;;;;19.77;49.92;101128.13;5023416;28;20050;-69
2024/04/07 04:30:12;;;;;;;2.00;0.70;;;;;;;19.79;50.03;101134.13;5023484;28;20044;-69
2024/04/07 04:32:37;;;;;;;2.03;0.70;;;;;;;19.62;49.89;101106.44;5023807;28;20039;-72
2024/04/07 04:35:05;;;;;;;1.95;0.77;;;;;;;19.61;49.79;101089.72;5023414;28;20251;-69
2024/04/07 04:37:30;;;;;;;0.93;0.60;;;;;;;19.61;49.89;101089.72;5013498;28;20033;-67
2024/04/07 04:39:56;;;;;;;2.38;0.75;;;;;;;19.66;49.94;101107.84;5022568;28;20467;-69
2024/04/07 04:42:21;;;;;;;1.38;0.60;;;;;;;19.74;49.82;101130.06;5023241;28;20034;-68
2024/04/07 04:44:46;;;;;;;2.15;0.60;;;;;;;19.75;49.98;101136.16;5023115;28;20030;-69
2024/04/07 04:47:12;;;;;;;1.87;0.60;;;;;;;19.72;49.56;101115.28;5022430;28;20541;-68
2024/04/07 04:49:37;;;;;;;1.55;0.60;;;;;;;19.62;50.05;101132.88;5022308;28;20297;-69
2024/04/07 04:52:03;;;;;;;1.75;0.80;;;;;;;19.65;49.95;101136.09;5021242;28;20148;-68
2024/04/07 04:54:28;;;;;;;1.83;0.70;;;;;;;19.62;49.76;101120.50;5020366;28;20491;-70
2024/04/07 04:56:53;;;;;;;1.40;0.70;;;;;;;19.65;49.77;101130.81;5020934;28;20033;-67
2024/04/07 04:59:19;;;;;;;1.40;0.70;;;;;;;19.64;50.37;101123.00;5021105;28;20045;-69
2024/04/07 05:01:44;;;;;;;2.75;0.70;;;;;;;19.76;50.35;101135.25;5019869;28;20701;-71
2024/04/07 05:04:10;;;;;;;2.17;0.60;;;;;;;19.63;50.29;101116.03;5020889;28;20029;-69
2024/04/07 05:06:35;;;;;;;2.20;0.65;;;;;;;19.58;50.35;101117.28;5020148;28;20040;-68
2024/04/07 05:09:00;;;;;;;1.85;0.70;;;;;;;19.78;50.38;101145.69;5002544;28;20047;-69
2024/04/07 05:11:26;;;;;;;1.55;0.60;;;;;;;19.71;50.45;101142.66;5020289;28;20055;-68
2024/04/07 05:13:51;;;;;;;2.10;0.70;;;;;;;19.65;50.22;101143.22;5020793;28;20112;-71
2024/04/07 05:16:17;;;;;;;1.77;0.63;;;;;;;19.82;50.38;101168.25;5021095;28;20060;-69
2024/04/07 05:18:42;;;;;;;1.90;0.50;;;;;;;19.78;50.53;101172.97;5020402;28;20468;-68
2024/04/07 05:21:09;;;;;;;1.40;0.70;;;;;;;19.84;50.63;101169.00;5006365;28;20161;-69
2024/04/07 05:23:36;;;;;;;2.25;0.70;;;;;;;19.85;50.62;101162.72;5020373;28;20025;-69
2024/04/07 05:26:28;;;;;;;2.80;0.82;;;;;;;19.85;50.72;101152.13;5021159;28;20037;-69
2024/04/07 05:28:53;;;;;;;1.85;0.75;;;;;;;19.73;50.69;101146.03;5015038;28;20053;-69
2024/04/07 05:31:18;;;;;;;3.08;0.90;;;;;;;19.86;50.81;101177.63;5021147;28;20041;-68
2024/04/07 05:33:46;;;;;;;2.90;0.73;;;;;;;19.86;50.60;101186.38;5020145;28;20044;-69
2024/04/07 05:36:11;;;;;;;3.80;0.80;;;;;;;19.72;50.69;101165.50;5020233;28;20045;-71
2024/04/07 05:38:38;;;;;;;1.52;0.50;;;;;;;19.85;51.15;101178.59;5020695;28;20044;-69
2024/04/07 05:41:04;;;;;;;4.95;0.73;;;;;;;19.89;51.05;101191.44;5020047;28;20041;-68
2024/04/07 05:43:31;;;;;;;3.53;0.70;;;;;;;19.90;51.16;101208.13;5001657;28;20091;-69
2024/04/07 05:46:02;;;;;;;2.13;0.73;;;;;;;19.79;50.88;101189.66;5004511;28;20068;-69
2024/04/07 05:48:29;;;;;;;6.72;1.20;;;;;;;19.72;51.16;101176.91;4983265;28;1071969;-68
2024/04/07 05:50:55;;;;;;;1.63;0.50;;;;;;;19.89;51.11;101207.28;5020089;28;20053;-68
2024/04/07 05:53:20;;;;;;;1.30;0.50;;;;;;;19.79;51.17;101189.66;5021421;28;20032;-69
2024/04/07 05:55:45;;;;;;;2.47;0.77;;;;;;;19.80;51.46;101194.00;5020755;28;20037;-68
2024/04/07 05:58:10;;;;;;;2.78;0.70;;;;;;;19.91;51.21;101215.94;5021062;28;20546;-68
2024/04/07 06:00:36;;;;;;;2.30;0.80;;;;;;;19.79;50.88;101202.88;5020257;28;20037;-68
2024/04/07 06:03:02;;;;;;;1.20;0.68;;;;;;;19.86;51.15;101215.47;5015955;28;20786;-71
2024/04/07 06:05:28;;;;;;;1.70;0.55;;;;;;;19.89;51.18;101222.34;5021284;28;20044;-70
2024/04/07 06:07:53;;;;;;;2.13;0.70;;;;;;;19.93;51.13;101239.63;5020964;28;20415;-68
2024/04/07 06:10:18;;;;;;;2.20;0.70;;;;;;;19.52;51.26;101183.88;5020988;28;20040;-69
2024/04/07 06:12:44;;;;;;;1.42;0.52;;;;;;;19.94;50.93;101243.94;5020111;28;20050;-71
2024/04/07 06:15:09;;;;;;;1.88;0.50;;;;;;;19.83;51.07;101234.25;5008676;28;21209;-69
2024/04/07 06:17:35;;;;;;;1.40;0.60;;;;;;;19.77;51.07;101223.34;5020140;28;20550;-70
2024/04/07 06:20:00;;;;;;;1.85;0.73;;;;;;;19.86;50.93;101243.75;5019510;28;20443;-68
2024/04/07 06:22:26;;;;;;;2.22;0.65;;;;;;;19.79;50.92;101229.34;5020291;28;20148;-69
2024/04/07 06:24:52;;;;;;;2.08;0.40;;;;;;;19.90;51.17;101246.00;5020211;28;20037;-68
2024/04/07 06:27:17;;;;;;;1.63;0.55;;;;;;;19.93;51.06;101247.56;5020851;28;20513;-70
2024/04/07 06:29:42;;;;;;;1.80;0.47;;;;;;;19.83;51.35;101242.19;5020693;28;20037;-69
2024/04/07 06:32:07;;;;;;;1.98;0.63;;;;;;;19.91;51.31;101241.56;5019957;28;20481;-69
2024/04/07 06:34:33;;;;;;;1.42;0.50;;;;;;;19.92;51.48;101254.66;5020519;28;20036;-68
2024/04/07 06:36:58;;;;;;;1.73;0.68;;;;;;;19.81;51.31;101236.19;5019367;28;20127;-68
2024/04/07 06:39:23;;;;;;;2.15;0.60;;;;;;;19.93;51.67;101247.56;5023024;28;20060;-68
2024/04/07 06:41:49;;;;;;;2.85;0.60;;;;;;;19.90;51.40;101242.50;5020097;28;20033;-68
2024/04/07 06:44:14;;;;;;;1.38;0.50;;;;;;;19.83;51.62;101234.25;5020544;28;20037;-69
2024/04/07 06:46:39;;;;;;;2.30;1.05;;;;;;;19.94;51.29;101258.00;5019381;28;20954;-70
2024/04/07 06:49:05;;;;;;;2.38;0.60;;;;;;;19.83;51.55;101244.00;5019876;28;20056;-68
2024/04/07 06:51:31;;;;;;;3.25;0.55;;;;;;;19.89;51.63;101251.44;5019753;28;20032;-69
2024/04/07 06:53:57;;;;;;;1.60;0.47;;;;;;;19.90;51.47;101245.16;5019693;28;20401;-70
2024/04/07 06:56:23;;;;;;;1.77;0.68;;;;;;;19.93;51.46;101253.69;5002398;28;20558;-68
2024/04/07 06:58:48;;;;;;;1.85;0.60;;;;;;;19.85;51.38;101237.63;5019330;28;20052;-71
2024/04/07 07:01:14;;;;;;;1.40;0.45;;;;;;;19.87;51.25;101240.16;5019911;28;20061;-70
2024/04/07 07:03:39;;;;;;;1.27;0.43;;;;;;;19.96;51.15;101265.81;5001137;28;20049;-70
2024/04/07 07:06:04;;;;;;;1.17;0.52;;;;;;;19.96;51.32;101265.81;5019666;28;20037;-69
2024/04/07 07:08:29;;;;;;;1.63;0.65;;;;;;;19.94;51.42;101273.03;5018950;28;20052;-71
2024/04/07 07:10:59;;;;;;;1.45;0.60;;;;;;;19.85;51.47;101264.06;5019792;28;20026;-68
2024/04/07 07:13:26;;;;;;;1.88;0.70;;;;;;;19.82;51.29;101244.94;5019359;28;20045;-68
2024/04/07 07:15:51;;;;;;;1.67;0.57;;;;;;;19.93;51.46;101263.41;5019710;28;20033;-69
2024/04/07 07:18:17;;;;;;;2.47;0.45;;;;;;;19.88;51.52;101274.38;5020156;28;20052;-69
2024/04/07 07:20:42;;;;;;;1.77;0.70;;;;;;;19.97;51.45;101286.03;5018483;28;20080;-68
2024/04/07 07:23:07;;;;;;;2.22;0.60;;;;;;;19.96;51.56;101289.63;5020031;28;20598;-68
2024/04/07 07:25:32;;;;;;;1.85;0.68;;;;;;;19.96;51.72;101292.25;5018871;28;20029;-70
2024/04/07 07:27:58;;;;;;;0.80;0.40;;;;;;;19.97;51.65;101307.19;5019119;28;20582;-68
2024/04/07 07:30:23;;;;;;;1.57;0.50;;;;;;;19.81;51.62;101275.03;5019530;28;20332;-69
2024/04/07 07:32:49;;;;;;;2.72;0.60;;;;;;;20.00;51.74;101316.69;5001311;28;20759;-70
2024/04/07 07:35:15;;;;;;;2.40;0.70;;;;;;;19.87;51.74;101291.22;5018767;28;20045;-68
2024/04/07 07:37:40;;;;;;;2.60;0.60;;;;;;;19.91;51.68;101297.94;5019988;28;20049;-69
2024/04/07 07:40:07;;;;;;;0.93;0.50;;;;;;;20.00;51.66;101316.69;5019027;28;20045;-70
2024/04/07 07:42:32;;;;;;;0.82;0.50;;;;;;;19.96;51.55;101312.59;5019061;28;20071;-70
2024/04/07 07:44:58;;;;;;;1.40;0.50;;;;;;;19.97;51.42;101307.19;5019505;28;20073;-69
2024/04/07 07:47:23;;;;;;;2.33;0.60;;;;;;;19.86;51.65;101291.34;5019486;28;20953;-69
2024/04/07 07:49:48;;;;;;;2.85;0.93;;;;;;;19.97;51.77;101309.00;5017720;28;20053;-68
2024/04/07 07:52:14;;;;;;;2.15;0.90;;;;;;;19.91;51.59;101305.88;5017443;28;20502;-68
2024/04/07 07:54:40;;;;;;;1.50;0.60;;;;;;;19.93;51.61;101309.25;5018666;28;20025;-68
2024/04/07 07:57:05;;;;;;;3.38;0.60;;;;;;;19.92;51.25;101306.72;5018114;28;20026;-70
2024/04/07 07:59:31;;;;;;;1.65;0.60;;;;;;;19.90;51.39;101296.28;5002134;28;20040;-67
2024/04/07 08:01:56;;;;;;;1.25;0.52;;;;;;;19.91;51.20;101313.81;5017985;28;20128;-68
2024/04/07 08:04:21;;;;;;;2.03;0.63;;;;;;;20.01;51.12;101328.94;5018522;28;20511;-72
2024/04/07 08:06:47;;;;;;;3.08;0.70;;;;;;;19.96;51.22;101317.88;5018866;28;20041;-68
2024/04/07 08:09:13;;;;;;;2.43;0.70;;;;;;;20.00;51.15;101336.03;5017739;28;20041;-69
2024/04/07 08:11:38;;;;;;;2.75;0.80;;;;;;;20.00;51.58;101337.84;5016810;28;20274;-68
2024/04/07 08:14:04;;;;;;;2.70;0.70;;;;;;;19.96;51.59;101337.25;5017315;28;20029;-69
2024/04/07 08:16:29;;;;;;;2.22;0.68;;;;;;;20.05;51.30;101348.91;4999667;28;20105;-71
2024/04/07 08:18:54;;;;;;;4.22;0.88;;;;;;;19.94;51.50;101337.38;5018245;28;20069;-72
2024/04/07 08:21:20;;;;;;;2.35;0.60;;;;;;;19.96;51.37;101339.06;5017136;28;20037;-69
2024/04/07 08:23:45;;;;;;;2.07;0.77;;;;;;;19.98;51.14;101347.69;5016841;28;20040;-71
2024/04/07 08:26:10;;;;;;;2.78;0.75;;;;;;;19.95;51.25;101343.50;5018733;28;21222;-69
2024/04/07 08:28:36;;;;;;;3.03;0.68;;;;;;;20.08;51.12;101357.41;5018795;28;20467;-71
2024/04/07 08:31:01;;;;;;;3.10;0.70;;;;;;;20.00;51.26;101353.72;5017129;28;20038;-68
2024/04/07 08:33:26;;;;;;;1.90;0.60;;;;;;;20.03;51.12;101346.38;4999607;28;20497;-68
2024/04/07 08:35:52;;;;;;;3.38;0.75;;;;;;;19.95;51.18;101338.22;5017743;28;20033;-69
2024/04/07 08:38:17;;;;;;;2.10;0.70;;;;;;;19.92;51.13;101326.06;5017643;28;20044;-69
2024/04/07 08:40:44;;;;;;;2.35;0.60;;;;;;;20.10;51.13;101349.34;5018093;28;20121;-69
2024/04/07 08:43:11;;;;;;;3.03;0.57;;;;;;;20.06;51.00;101340.84;5019446;28;20143;-70
2024/04/07 08:45:38;;;;;;;3.05;0.80;;;;;;;19.95;51.19;101327.66;5020716;28;20037;-72
2024/04/07 08:48:07;;;;;;;2.15;0.80;;;;;;;20.09;51.09;101353.81;5018200;28;20061;-72
2024/04/07 08:50:32;;;;;;;3.28;0.70;;;;;;;19.94;51.25;101337.38;5019403;28;20107;-72
2024/04/07 08:52:58;;;;;;;1.77;0.70;;;;;;;20.09;51.38;101361.75;5019393;28;20036;-72
2024/04/07 08:55:23;;;;;;;4.18;0.75;;;;;;;20.08;51.32;101351.28;5020997;28;20511;-71
2024/04/07 08:57:50;;;;;;;3.83;0.90;;;;;;;20.02;51.43;101347.31;5020233;28;20048;-73
2024/04/07 09:00:16;;;;;;;2.58;0.65;;;;;;;20.06;51.47;101348.78;5020052;28;20025;-72
2024/04/07 09:02:42;;;;;;;2.53;0.82;;;;;;;20.06;51.33;101362.00;5019732;28;20033;-72
2024/04/07 09:05:07;;;;;;;3.70;0.60;;;;;;;19.96;51.48;101349.63;5021077;28;20060;-72
2024/04/07 09:07:33;;;;;;;2.05;0.80;;;;;;;20.03;51.29;101361.41;5021542;28;20509;-71
2024/04/07 09:09:58;;;;;;;2.63;0.80;;;;;;;19.99;51.06;101347.56;5003661;28;20029;-72
2024/04/07 09:12:24;;;;;;;1.63;0.60;;;;;;;19.94;51.17;101344.47;5021795;28;20049;-72
2024/04/07 09:14:49;;;;;;;3.15;0.85;;;;;;;20.09;51.44;101369.69;5004227;28;20472;-72
2024/04/07 09:17:15;;;;;;;2.53;0.70;;;;;;;20.00;51.26;101351.91;5020410;28;20029;-72
2024/04/07 09:19:40;;;;;;;1.05;0.45;;;;;;;19.91;51.10;101339.41;5020993;28;20029;-72
2024/04/07 09:22:06;;;;;;;3.58;1.00;;;;;;;19.96;51.34;101339.06;5018874;28;20480;-71
2024/04/07 09:24:33;;;;;;;3.20;0.80;;;;;;;19.98;51.11;101334.47;5017317;28;20100;-73
2024/04/07 09:26:59;;;;;;;3.20;0.90;;;;;;;20.06;50.92;101361.13;5003178;28;20032;-72
2024/04/07 09:29:28;;;;;;;2.45;0.77;;;;;;;20.10;51.08;101373.16;5019521;28;20037;-71
2024/04/07 09:31:53;;;;;;;3.60;0.90;;;;;;;19.87;51.25;101333.56;5019174;28;20065;-71
2024/04/07 09:34:19;;;;;;;4.68;1.00;;;;;;;20.07;51.23;101361.00;5019082;28;20152;-70
2024/04/07 09:36:44;;;;;;;3.22;0.85;;;;;;;19.91;50.99;101332.31;5018992;28;20025;-72
2024/04/07 09:39:11;;;;;;;2.10;0.70;;;;;;;19.86;51.06;101336.31;5019939;28;20112;-72
2024/04/07 09:41:36;;;;;;;2.92;0.90;;;;;;;19.87;51.17;101322.13;5001184;28;20069;-72
2024/04/07 09:44:05;;;;;;;3.50;0.82;;;;;;;19.97;51.33;101341.56;5001859;28;20098;-71
2024/04/07 09:46:36;;;;;;;2.95;0.70;;;;;;;19.59;51.50;101279.38;5020833;28;20033;-69
2024/04/07 09:49:05;;;;;;;3.53;0.90;;;;;;;19.98;51.34;101340.63;5019393;28;20148;-71
2024/04/07 09:51:33;;;;;;;2.15;0.70;;;;;;;20.03;51.24;101353.47;5021091;28;20033;-71
2024/04/07 09:54:15;;;;;;;4.07;0.73;;;;;;;20.04;51.35;101350.69;5018900;28;20030;-69
2024/04/07 09:56:42;;;;;;;4.40;0.70;;;;;;;19.94;51.46;101329.44;5002524;28;20494;-68
2024/04/07 09:59:09;;;;;;;2.08;0.77;;;;;;;19.98;51.12;101343.25;5019938;28;20248;-70
2024/04/07 10:01:35;;;;;;;2.17;0.70;;;;;;;20.01;51.25;101345.66;5019909;28;20041;-69
2024/04/07 10:04:02;;;;;;;4.53;0.80;;;;;;;20.03;51.24;101338.44;5020448;28;20036;-71
2024/04/07 10:06:30;;;;;;;1.65;0.65;;;;;;;19.94;51.00;101328.59;5018992;28;20049;-71
2024/04/07 10:08:56;;;;;;;4.82;0.73;;;;;;;20.02;51.24;101344.69;5001387;28;20120;-69
2024/04/07 10:11:22;;;;;;;4.18;0.93;;;;;;;20.06;51.18;101348.78;5020557;28;20093;-67
2024/04/07 10:13:47;;;;;;;2.08;0.80;;;;;;;20.03;51.16;101334.97;5018363;28;20195;-71
2024/04/07 10:16:16;;;;;;;2.90;0.75;;;;;;;19.91;50.89;101319.09;5021106;28;20843;-72
2024/04/07 10:18:46;;;;;;;3.42;0.75;;;;;;;19.84;51.17;101303.88;5021537;28;20036;-73
2024/04/07 10:21:11;;;;;;;3.08;0.70;;;;;;;20.10;51.24;101354.63;5018318;28;20033;-71
2024/04/07 10:23:42;;;;;;;6.38;0.93;;;;;;;20.11;50.94;101351.03;5020009;28;20029;-72
2024/04/07 10:26:08;;;;;;;3.15;0.70;;;;;;;20.01;51.08;101332.44;5021974;28;20533;-70
2024/04/07 10:28:53;;;;;;;6.10;0.98;;;;;;;20.01;50.80;101328.94;5003085;28;20037;-72
2024/04/07 10:31:39;;;;;;;3.40;0.63;;;;;;;19.95;50.75;101317.06;5022196;28;20469;-71
2024/04/07 10:34:09;;;;;;;4.72;0.80;;;;;;;20.10;50.96;101334.31;5021936;28;20124;-70
2024/04/07 10:36:34;;;;;;;2.63;0.70;;;;;;;19.97;51.07;101315.13;5021608;28;20037;-71
2024/04/07 10:39:00;;;;;;;2.58;0.80;;;;;;;20.15;51.15;101338.38;5021444;28;20083;-73
2024/04/07 10:41:31;;;;;;;3.38;0.80;;;;;;;20.02;51.17;101314.75;5021939;28;20033;-71
2024/04/07 10:43:57;;;;;;;5.57;1.13;;;;;;;20.03;50.94;101313.78;5020965;28;20036;-73
2024/04/07 10:46:23;;;;;;;6.18;1.45;;;;;;;20.10;51.02;101331.66;5021585;28;20033;-74
2024/04/07 10:48:50;;;;;;;5.78;1.77;;;;;;;20.18;51.25;101333.69;4995804;28;20140;-70
2024/04/07 10:51:16;;;;;;;6.95;1.90;;;;;;;20.08;51.35;101335.41;5001488;28;20034;-73
2024/04/07 10:53:42;;;;;;;8.23;1.92;;;;;;;20.09;51.22;101318.56;5001525;28;20030;-71
2024/04/07 10:56:08;;;;;;;6.30;1.70;;;;;;;20.21;51.02;101343.19;4981970;28;20448;-71
2024/04/07 10:58:34;;;;;;;6.50;1.80;;;;;;;20.22;51.02;101345.69;4999543;28;20041;-71
2024/04/07 11:00:59;;;;;;;8.85;1.88;;;;;;;20.05;51.25;101304.75;4999119;28;20038;-71
2024/04/07 11:03:26;;;;;;;6.82;2.05;;;;;;;20.08;51.23;101315.06;4998053;28;20057;-74
2024/04/07 11:05:51;;;;;;;8.30;2.10;;;;;;;20.17;51.14;101331.16;4999235;28;20029;-73
2024/04/07 11:08:18;;;;;;;6.18;1.58;;;;;;;20.24;51.14;101335.81;5002009;28;20040;-71
2024/04/07 11:10:50;;;;;;;5.63;1.58;;;;;;;20.21;51.08;101336.06;4999005;28;20049;-73
2024/04/07 11:13:17;;;;;;;8.50;1.70;;;;;;;20.23;50.99;101350.00;5000539;28;20038;-70
2024/04/07 11:15:42;;;;;;;6.85;1.45;;;;;;;20.00;50.52;101304.28;5001164;28;20034;-73
2024/04/07 11:18:15;;;;;;;9.38;1.88;;;;;;;20.20;50.56;101341.50;4999855;28;20040;-72
2024/04/07 11:20:41;;;;;;;5.07;1.37;;;;;;;20.00;50.66;101308.75;4982445;28;20108;-71
2024/04/07 11:23:07;;;;;;;3.83;1.20;;;;;;;20.22;50.06;101342.19;5001084;28;20034;-70